• Join FlightAware (Why Join?)
  • Login
  • US Flag 
06:57AM EST


 

Airport Tracker/Info


-or-


 

Live Flight TrackerFlight Track Log ✈ EGF2876 ✈ 02-May-2013 ✈ KSAF - KDFW

Flight Track Log - Related Links

Times and Time Zones

All times are in EDT time to prevent confusion due to time zone crossing. See the EGF2876 flight status page for this flight to view local times or setup timezone preferences in your user account.

Time Position Orientation Groundspeed Altitude Reporting Facility
EDT Latitude Longitude Course Direction KTS MPH feet Rate Location/Type
12:53PM 35.5878 -106.1058 116° Southeast 200 230 7,500  Level Albuquerque Center
12:54PM 35.5428 -106.0669 145° Southeast 217 250 9,300 1,742 Climbing Albuquerque Center
12:55PM 35.5100 -105.9956 119° Southeast 232 267 11,100 1,452 Climbing Albuquerque Center
12:57PM 35.4453 -105.7842 111° Southeast 312 359 13,800 1,226 Climbing Albuquerque Center
12:58PM 35.2713 -105.4366 116° Southeast  Level FlightAware Approximate
12:58PM 35.4089 -105.6672 111° Southeast 344 396 14,900  Level Albuquerque Center
12:59PM 35.3703 -105.5425 111° Southeast 373 429 16,000 1,104 Climbing Albuquerque Center
01:00PM 35.3308 -105.4142 111° Southeast 389 448 17,200 823 Climbing Albuquerque Center
01:01PM 35.2886 -105.2803 111° Southeast 410 472 17,700 919 Climbing Albuquerque Center
01:02PM 35.2381 -105.1214 111° Southeast 422 486 19,100 1,210 Climbing Albuquerque Center
01:03PM 35.1947 -104.9811 111° Southeast 431 496 20,200 1,113 Climbing Albuquerque Center
01:04PM 35.1497 -104.8383 111° Southeast 440 506 21,400 1,104 Climbing Albuquerque Center
01:05PM 35.1039 -104.6928 111° Southeast 452 520 22,500 1,056 Climbing Albuquerque Center
01:06PM 35.0556 -104.5458 112° Southeast 462 532 23,600 1,161 Climbing Albuquerque Center
01:07PM 35.0006 -104.3739 111° Southeast 466 536 24,900 677 Climbing Albuquerque Center
01:08PM 34.9542 -104.2228 110° East 475 547 25,000 48 Climbing Albuquerque Center
01:09PM 34.9236 -104.0606 103° East 488 562 25,000 97 Level Albuquerque Center
01:10PM 34.8925 -103.8969 103° East 494 568 25,200 581 Climbing Albuquerque Center
01:11PM 34.8608 -103.7325 103° East 497 572 26,200 968 Climbing Albuquerque Center
01:12PM 34.8286 -103.5708 104° East 491 565 27,200 1,065 Climbing Albuquerque Center
01:13PM 34.7914 -103.3842 104° East 486 559 28,400 871 Climbing Albuquerque Center
01:14PM 34.7403 -103.2347 113° Southeast 484 557 29,000 726 Climbing Albuquerque Center
01:15PM 34.6806 -103.0867 116° Southeast 483 556 29,900 484 Climbing Albuquerque Center
01:16PM 34.6233 -102.9367 115° Southeast 486 559 30,000 48 Climbing Albuquerque Center
01:17PM 34.5614 -102.7836 116° Southeast 497 572 30,000  Level Albuquerque Center
01:18PM 34.5050 -102.6386 115° Southeast 494 568 30,000  Level Albuquerque Center
01:19PM 34.4350 -102.4575 115° Southeast 496 571 30,000 339 Level Albuquerque Center
01:20PM 34.4186 -102.2939 97° East 497 572 30,700 871 Climbing Albuquerque Center
01:21PM 34.4044 -102.1328 96° East 490 564 31,800 1,056 Climbing Albuquerque Center
01:23PM 34.3894 -101.9758 97° East 481 554 32,900 1,056 Climbing Albuquerque Center
01:24PM 34.3753 -101.8225 96° East 471 542 34,000 1,210 Climbing Albuquerque Center
01:25PM 34.3589 -101.6403 96° East 462 532 35,400 1,210 Climbing Albuquerque Center
01:26PM 34.3436 -101.4914 97° East 455 524 36,500 744 Climbing Albuquerque Center
01:27PM 34.3289 -101.3339 96° East 452 520 37,000 236 Climbing Fort Worth Center
01:28PM 34.3111 -101.1597 97° East 460 529 37,000  Level Fort Worth Center
01:29PM 34.2931 -100.9956 98° East 474 545 37,000  Level Fort Worth Center
01:30PM 34.2706 -100.8314 99° East 487 560 37,000  Level Fort Worth Center
01:31PM 34.2350 -100.6742 105° East 487 560 37,000  Level Fort Worth Center
01:32PM 34.1994 -100.5172 105° East 487 560 37,000  Level Fort Worth Center
01:33PM 34.1672 -100.3828 106° East 477 549 37,000  Level Fort Worth Center
01:34PM 34.1292 -100.2311 107° East 472 543 37,000  Level Fort Worth Center
01:35PM 34.0947 -100.0769 105° East 472 543 37,000  Level Fort Worth Center
01:36PM 34.0583 -99.9231 106° East 472 543 37,000  Level Fort Worth Center
01:37PM 34.0217 -99.7742 107° East 472 543 37,000  Level Fort Worth Center
01:38PM 33.9869 -99.6203 105° East 467 537 37,000 -50 Level Fort Worth Center
01:39PM 33.9497 -99.4667 106° East 467 537 36,900 -1,150 Descending Fort Worth Center
01:40PM 33.9125 -99.3206 107° East 467 537 34,700 -2,150 Descending Fort Worth Center
01:41PM 33.8772 -99.1722 106° East 461 531 32,600 -2,200 Descending Fort Worth Center
01:42PM 33.8394 -99.0164 106° East 466 536 30,300 -2,350 Descending Fort Worth Center
01:43PM 33.7997 -98.8633 107° East 472 543 27,900 -2,450 Descending Fort Worth Center
01:44PM 33.7578 -98.6953 107° East 472 543 25,400 -1,950 Descending Fort Worth Center
01:45PM 33.7194 -98.5422 107° East 478 550 24,000 -700 Descending Fort Worth Center
01:46PM 33.6833 -98.3944 106° East 473 544 24,000 -900 Level Fort Worth Center
01:47PM 33.6447 -98.2494 108° East 461 531 22,200 -1,900 Descending Fort Worth Center
01:48PM 33.6058 -98.1042 108° East 456 525 20,200 -2,000 Descending Fort Worth Center
01:49PM 33.5439 -97.9817 121° Southeast 436 502 18,200 -1,700 Descending Fort Worth Center
01:50PM 33.4881 -97.8667 120° Southeast 436 502 16,800 -1,750 Descending Fort Worth Center
01:51PM 33.4278 -97.7419 120° Southeast 412 474 14,700 -1,800 Descending Fort Worth Center
01:52PM 33.3842 -97.6472 119° Southeast 372 428 13,200 -1,500 Descending Fort Worth Center
01:53PM 33.3175 -97.5650 134° Southeast 345 397 11,700 -1,100 Descending Fort Worth Center
01:54PM 33.2486 -97.4856 136° Southeast 318 366 11,000 -350 Descending Fort Worth Center
01:55PM 33.1883 -97.4158 136° Southeast 312 359 11,000  Level Fort Worth Center
01:56PM 33.1278 -97.3439 135° Southeast 312 359 11,000  Level Fort Worth Center
01:57PM 33.0672 -97.2722 135° Southeast 312 359 11,000  Level Fort Worth Center
01:58PM 33.0147 -97.2128 136° Southeast 305 351 11,000  Level Fort Worth Center
01:59PM 32.9481 -97.1683 151° Southeast 270 311 11,000 -900 Level Fort Worth Center
02:00PM 32.8853 -97.1711 182° South 245 282 9,200 -1,850 Descending Fort Worth Center
02:01PM 32.8081 -97.1686 178° South 251 289 7,300 -1,850 Descending Fort Worth Center
02:02PM 32.7475 -97.1689 180° South 251 289 5,500 -2,050 Descending Fort Worth Center
02:03PM 32.6744 -97.1692 180° South 251 289 3,200 -1,250 Descending Fort Worth Center
02:04PM 32.6203 -97.1569 169° South 242 278 3,000 -273 Descending Fort Worth Center
02:06PM 32.6667 -97.0500 63° Northeast 156 180 2,300 -213 Descending Dallas / Fort Worth TRACON
02:07PM 32.7000 -97.0500 360° North 153 176 2,300  Level Dallas / Fort Worth TRACON
02:08PM 32.7333 -97.0500 360° North 145 167 2,300  Level Dallas / Fort Worth TRACON